createdAt,value
2022-08-09T00:00:48.400Z,13.91
2022-08-09T00:01:54.462Z,13.89
2022-08-09T00:02:49.921Z,13.96
2022-08-09T00:04:05.565Z,13.91
2022-08-09T00:05:03.068Z,13.92
2022-08-09T00:06:18.497Z,13.92
2022-08-09T00:06:48.292Z,13.92
2022-08-09T00:07:47.282Z,13.95
2022-08-09T00:08:47.279Z,13.82
2022-08-09T00:09:47.269Z,13.88
2022-08-09T00:10:47.290Z,13.87
2022-08-09T00:12:04.058Z,13.78
2022-08-09T00:12:51.695Z,13.85
2022-08-09T00:13:47.214Z,13.84
2022-08-09T00:14:47.506Z,13.73
2022-08-09T00:15:58.965Z,13.81
2022-08-09T00:16:48.249Z,13.71
2022-08-09T00:18:05.425Z,13.85
2022-08-09T00:18:48.216Z,13.79
2022-08-09T00:19:48.020Z,13.73
2022-08-09T00:20:50.009Z,13.77
2022-08-09T00:21:56.738Z,13.79
2022-08-09T00:22:48.167Z,13.71
2022-08-09T00:23:55.082Z,13.79
2022-08-09T00:24:48.143Z,13.70
2022-08-09T00:25:47.083Z,13.62
2022-08-09T00:26:47.087Z,13.67
2022-08-09T00:27:47.935Z,13.71
2022-08-09T00:28:52.222Z,13.63
2022-08-09T00:30:23.474Z,13.64
2022-08-09T00:30:48.043Z,13.70
2022-08-09T00:31:59.150Z,13.70
2022-08-09T00:32:48.209Z,13.70
2022-08-09T00:33:50.803Z,13.63
2022-08-09T00:34:52.197Z,13.64
2022-08-09T00:35:48.034Z,13.66
2022-08-09T00:36:46.963Z,13.64
2022-08-09T00:37:46.954Z,13.57
2022-08-09T00:38:50.839Z,13.69
2022-08-09T00:40:13.461Z,13.69
2022-08-09T00:40:52.919Z,13.66
2022-08-09T00:44:11.855Z,13.63
2022-08-09T00:44:13.563Z,13.54
2022-08-09T00:44:17.148Z,13.59
2022-08-09T00:44:47.943Z,13.55
2022-08-09T00:45:50.455Z,13.60
2022-08-09T00:46:56.927Z,13.49
2022-08-09T00:47:47.895Z,13.55
2022-08-09T00:48:47.592Z,13.54
2022-08-09T00:49:54.539Z,13.54
2022-08-09T00:50:47.816Z,13.54
2022-08-09T00:51:55.928Z,13.49
2022-08-09T00:52:47.834Z,13.48
2022-08-09T00:53:46.773Z,13.54
2022-08-09T00:54:47.792Z,13.41
2022-08-09T00:56:05.854Z,13.46
2022-08-09T00:56:47.755Z,13.52
2022-08-09T00:57:49.801Z,13.55
2022-08-09T00:58:49.051Z,13.59
2022-08-09T00:59:52.239Z,13.52
2022-08-09T01:00:47.792Z,13.46
2022-08-09T01:01:46.804Z,13.62
2022-08-09T01:02:46.727Z,13.52
2022-08-09T01:03:46.791Z,13.46
2022-08-09T01:04:46.650Z,13.51
2022-08-09T01:05:51.691Z,13.52
2022-08-09T01:06:54.468Z,13.49
2022-08-09T01:08:00.026Z,13.55
2022-08-09T01:08:49.743Z,13.45
2022-08-09T01:09:46.834Z,13.44
2022-08-09T01:10:46.583Z,13.46
2022-08-09T01:11:55.461Z,13.49
2022-08-09T01:12:47.599Z,13.48
2022-08-09T01:13:59.086Z,13.52
2022-08-09T01:14:52.429Z,13.46
2022-08-09T01:15:52.081Z,13.45
2022-08-09T01:16:49.216Z,13.46
2022-08-09T01:17:46.568Z,13.55
2022-08-09T01:18:47.392Z,13.57
2022-08-09T01:20:01.920Z,13.52
2022-08-09T01:20:47.472Z,13.45
2022-08-09T01:21:51.264Z,13.52
2022-08-09T01:22:51.215Z,13.55
2022-08-09T01:24:02.237Z,13.55
2022-08-09T01:24:50.385Z,13.55
2022-08-09T01:25:49.034Z,13.46
2022-08-09T01:26:46.449Z,13.39
2022-08-09T01:27:47.395Z,13.46
2022-08-09T01:28:46.384Z,13.36
2022-08-09T01:29:56.003Z,13.46
2022-08-09T01:30:51.454Z,13.32
2022-08-09T01:32:29.189Z,13.41
2022-08-09T01:32:47.366Z,13.28
2022-08-09T01:33:46.327Z,13.36
2022-08-09T01:34:46.390Z,13.26
2022-08-09T01:35:46.332Z,13.30
2022-08-09T01:36:47.325Z,13.33
2022-08-09T01:38:08.092Z,13.32
2022-08-09T01:38:47.278Z,13.28
2022-08-09T01:39:46.382Z,13.33
2022-08-09T01:40:52.501Z,13.28
2022-08-09T01:41:53.593Z,13.26
2022-08-09T01:42:47.263Z,13.28
2022-08-09T01:43:51.614Z,13.23
2022-08-09T01:44:47.211Z,13.26
2022-08-09T01:45:47.807Z,13.33
2022-08-09T01:46:47.132Z,13.39
2022-08-09T01:47:46.173Z,13.33
2022-08-09T01:48:46.184Z,13.33
2022-08-09T01:49:48.764Z,13.33
2022-08-09T01:50:48.375Z,13.39
2022-08-09T01:51:53.722Z,13.42
2022-08-09T01:52:47.173Z,13.32
2022-08-09T01:53:46.146Z,13.36
2022-08-09T01:54:46.110Z,13.36
2022-08-09T01:55:46.085Z,13.33
2022-08-09T01:56:47.150Z,13.29
2022-08-09T01:57:53.033Z,13.28
2022-08-09T01:58:49.039Z,13.36
2022-08-09T01:59:52.291Z,13.30
2022-08-09T02:00:50.536Z,13.33
2022-08-09T02:01:59.405Z,13.30
2022-08-09T02:02:47.037Z,13.22
2022-08-09T02:03:46.024Z,13.32
2022-08-09T02:04:45.984Z,13.22
2022-08-09T02:06:03.204Z,13.23
2022-08-09T02:06:54.477Z,13.30
2022-08-09T02:08:40.414Z,13.28
2022-08-09T02:08:58.540Z,13.28
2022-08-09T02:09:46.974Z,13.20
2022-08-09T02:10:51.032Z,13.30
2022-08-09T02:11:45.930Z,13.29
2022-08-09T02:12:45.936Z,13.29
2022-08-09T02:14:06.358Z,13.29
2022-08-09T02:14:46.872Z,13.23
2022-08-09T02:15:49.337Z,13.23
2022-08-09T02:16:53.042Z,13.23
2022-08-09T02:18:09.724Z,13.22
2022-08-09T02:18:47.956Z,13.23
2022-08-09T02:19:45.879Z,13.17
2022-08-09T02:20:45.821Z,13.14
2022-08-09T02:21:45.796Z,13.17
2022-08-09T02:22:46.578Z,13.12
2022-08-09T02:23:45.771Z,13.20
2022-08-09T02:24:51.659Z,13.20
2022-08-09T02:25:52.860Z,13.17
2022-08-09T02:26:46.779Z,13.19
2022-08-09T02:28:00.219Z,13.17
2022-08-09T02:28:46.717Z,13.20
2022-08-09T02:29:45.707Z,13.20
2022-08-09T02:30:46.766Z,13.14
2022-08-09T02:31:45.685Z,13.00
2022-08-09T02:32:45.699Z,12.96
2022-08-09T02:34:06.263Z,12.89
2022-08-09T02:34:51.790Z,12.89
2022-08-09T02:36:02.614Z,12.85
2022-08-09T02:36:46.653Z,12.86
2022-08-09T02:37:46.658Z,12.87
2022-08-09T02:38:47.862Z,12.82
2022-08-09T02:39:49.954Z,12.79
2022-08-09T02:40:46.655Z,12.86
2022-08-09T02:41:45.632Z,12.75
2022-08-09T02:42:45.562Z,12.75
2022-08-09T02:43:54.793Z,12.82
2022-08-09T02:44:46.566Z,12.82
2022-08-09T02:45:45.541Z,12.78
2022-08-09T02:46:45.565Z,12.78
2022-08-09T02:47:59.267Z,12.82
2022-08-09T02:48:46.533Z,12.70
2022-08-09T02:49:45.510Z,12.68
2022-08-09T02:50:45.486Z,12.65
2022-08-09T02:51:45.479Z,12.65
2022-08-09T02:52:45.451Z,12.68
2022-08-09T02:53:53.051Z,12.65
2022-08-09T02:54:53.881Z,12.71
2022-08-09T02:55:58.260Z,12.67
2022-08-09T02:56:48.744Z,12.65
2022-08-09T02:58:00.190Z,12.70
2022-08-09T02:58:46.385Z,12.60
2022-08-09T03:00:21.079Z,12.54
2022-08-09T03:00:58.058Z,12.53
2022-08-09T03:02:06.264Z,12.59
2022-08-09T03:03:00.414Z,12.52
2022-08-09T03:04:17.914Z,12.67
2022-08-09T03:04:46.370Z,12.53
2022-08-09T03:05:45.341Z,12.65
2022-08-09T03:06:45.494Z,12.59
2022-08-09T03:07:55.124Z,12.57
2022-08-09T03:08:46.314Z,12.65
2022-08-09T03:09:56.217Z,12.71
2022-08-09T03:10:46.379Z,12.60
2022-08-09T03:12:05.678Z,12.65
2022-08-09T03:12:46.652Z,12.65
2022-08-09T03:13:54.562Z,12.68
2022-08-09T03:14:46.271Z,12.67
2022-08-09T03:16:06.495Z,12.75
2022-08-09T03:16:47.715Z,12.68
2022-08-09T03:17:45.190Z,12.67
2022-08-09T03:18:46.210Z,12.70
2022-08-09T03:19:58.168Z,12.67
2022-08-09T03:20:46.138Z,12.64
2022-08-09T03:21:50.751Z,12.67
2022-08-09T03:22:46.274Z,12.60
2022-08-09T03:24:03.765Z,12.65
2022-08-09T03:24:52.436Z,12.64
2022-08-09T03:26:03.118Z,12.56
2022-08-09T03:26:47.176Z,12.57
2022-08-09T03:27:45.880Z,12.56
2022-08-09T03:28:45.060Z,12.65
2022-08-09T03:29:58.001Z,12.54
2022-08-09T03:30:46.069Z,12.53
2022-08-09T03:31:59.865Z,12.60
2022-08-09T03:32:46.011Z,12.57
2022-08-09T03:33:53.175Z,12.50
2022-08-09T03:34:46.027Z,12.52
2022-08-09T03:36:14.095Z,12.49
2022-08-09T03:36:58.184Z,12.46
2022-08-09T03:37:56.051Z,12.45
2022-08-09T03:38:45.949Z,12.42
2022-08-09T03:39:48.589Z,12.41
2022-08-09T03:40:45.953Z,12.46
2022-08-09T03:41:48.349Z,12.41
2022-08-09T03:42:44.960Z,12.47
2022-08-09T03:43:51.664Z,12.38
2022-08-09T03:44:45.889Z,12.37
2022-08-09T03:46:04.546Z,12.37
2022-08-09T03:46:46.487Z,12.39
2022-08-09T03:47:46.330Z,12.37
2022-08-09T03:48:51.866Z,12.39
2022-08-09T03:49:58.436Z,12.37
2022-08-09T03:50:45.827Z,12.38
2022-08-09T03:51:58.143Z,12.41
2022-08-09T03:52:46.023Z,12.38
2022-08-09T03:53:44.783Z,12.38
2022-08-09T03:54:44.818Z,12.38
2022-08-09T03:55:44.751Z,12.39
2022-08-09T03:56:44.745Z,12.39
2022-08-09T03:58:03.314Z,12.31
2022-08-09T03:58:45.714Z,12.34
2022-08-09T03:59:53.414Z,12.34
2022-08-09T04:00:45.772Z,12.32
2022-08-09T04:01:44.688Z,12.35
2022-08-09T04:02:45.047Z,12.34
2022-08-09T04:03:46.163Z,12.35
2022-08-09T04:04:47.865Z,12.32
2022-08-09T04:05:45.072Z,12.31
2022-08-09T04:06:49.298Z,12.38
2022-08-09T04:07:53.615Z,12.24
2022-08-09T04:08:46.665Z,12.35
2022-08-09T04:09:50.036Z,12.38
2022-08-09T04:10:47.991Z,12.35
2022-08-09T04:11:44.573Z,12.32
2022-08-09T04:12:45.167Z,12.32
2022-08-09T04:14:37.065Z,12.34
2022-08-09T04:15:00.386Z,12.34
2022-08-09T04:16:20.236Z,12.35
2022-08-09T04:16:45.517Z,12.37
2022-08-09T04:17:44.505Z,12.38
2022-08-09T04:18:44.493Z,12.38
2022-08-09T04:19:51.545Z,12.38
2022-08-09T04:20:45.491Z,12.42
2022-08-09T04:21:44.508Z,12.41
2022-08-09T04:22:44.575Z,12.39
2022-08-09T04:23:54.335Z,12.45
2022-08-09T04:24:45.447Z,12.42
2022-08-09T04:25:44.431Z,12.37
2022-08-09T04:26:45.435Z,12.42
2022-08-09T04:27:49.113Z,12.41
2022-08-09T04:28:44.444Z,12.41
2022-08-09T04:29:49.670Z,12.45
2022-08-09T04:30:45.387Z,12.49
2022-08-09T04:31:46.995Z,12.41
2022-08-09T04:32:45.937Z,12.42
2022-08-09T04:33:51.826Z,12.42
2022-08-09T04:34:54.076Z,12.41
2022-08-09T04:35:45.317Z,12.49
2022-08-09T04:36:50.409Z,12.50
2022-08-09T04:37:46.747Z,12.54
2022-08-09T04:38:44.303Z,12.52
2022-08-09T04:39:44.324Z,12.59
2022-08-09T04:40:45.250Z,12.57
2022-08-09T04:41:44.273Z,12.56
2022-08-09T04:42:44.243Z,12.64
2022-08-09T04:43:46.623Z,12.54
2022-08-09T04:44:49.322Z,12.64
2022-08-09T04:45:53.143Z,12.64
2022-08-09T04:46:59.229Z,12.67
2022-08-09T04:48:00.286Z,12.68
2022-08-09T04:48:57.636Z,12.70
2022-08-09T04:49:54.457Z,12.67
2022-08-09T04:50:45.150Z,12.67
2022-08-09T04:51:44.196Z,12.74
2022-08-09T04:52:44.115Z,12.74
2022-08-09T04:53:44.148Z,12.72
2022-08-09T04:54:44.127Z,12.72
2022-08-09T04:55:58.891Z,12.82
2022-08-09T04:56:45.067Z,12.85
2022-08-09T04:57:53.991Z,12.86
2022-08-09T04:58:45.054Z,12.86
2022-08-09T04:59:44.062Z,12.97
2022-08-09T05:00:44.068Z,12.89
2022-08-09T05:01:44.054Z,12.95
2022-08-09T05:02:44.005Z,13.00
2022-08-09T05:03:44.121Z,13.01
2022-08-09T05:04:44.020Z,12.96
2022-08-09T05:05:52.048Z,13.11
2022-08-09T05:06:44.956Z,13.14
2022-08-09T05:07:46.425Z,13.19
2022-08-09T05:08:48.016Z,13.14
2022-08-09T05:09:49.437Z,13.20
2022-08-09T05:10:44.940Z,13.25
2022-08-09T05:11:43.915Z,13.29
2022-08-09T05:12:43.902Z,13.32
2022-08-09T05:13:43.920Z,13.38
2022-08-09T05:14:43.869Z,13.39
2022-08-09T05:15:52.151Z,13.48
2022-08-09T05:16:59.243Z,13.52
2022-08-09T05:18:37.955Z,13.49
2022-08-09T05:18:59.349Z,13.57
2022-08-09T05:19:46.145Z,13.62
2022-08-09T05:20:43.828Z,13.63
2022-08-09T05:21:47.357Z,13.70
2022-08-09T05:23:53.742Z,13.60
2022-08-09T05:23:56.698Z,13.75
2022-08-09T05:24:44.822Z,13.79
2022-08-09T05:25:43.755Z,13.77
2022-08-09T05:26:46.268Z,13.84
2022-08-09T05:27:45.341Z,13.92
2022-08-09T05:28:43.728Z,13.95
2022-08-09T05:29:43.748Z,13.96
2022-08-09T05:30:47.938Z,14.00
2022-08-09T05:31:45.936Z,14.07
2022-08-09T05:32:44.689Z,14.12
2022-08-09T05:33:43.673Z,14.24
2022-08-09T05:34:45.800Z,14.18
2022-08-09T05:35:49.818Z,14.22
2022-08-09T05:36:47.221Z,14.29
2022-08-09T05:37:47.832Z,14.35
2022-08-09T05:38:46.118Z,14.39
2022-08-09T05:39:44.617Z,14.46
2022-08-09T05:40:47.578Z,14.45
2022-08-09T05:41:44.582Z,14.55
2022-08-09T05:42:43.609Z,14.40
2022-08-09T05:43:45.301Z,14.47
2022-08-09T05:44:44.602Z,14.58
2022-08-09T05:45:55.620Z,14.64
2022-08-09T05:46:44.516Z,14.58
2022-08-09T05:47:51.676Z,14.75
2022-08-09T05:48:44.495Z,14.73
2022-08-09T05:50:23.168Z,14.83
2022-08-09T05:50:51.254Z,14.84
2022-08-09T05:51:46.448Z,14.94
2022-08-09T05:52:43.467Z,15.07
2022-08-09T05:53:51.652Z,15.01
2022-08-09T05:54:44.436Z,15.11
2022-08-09T05:55:43.487Z,15.19
2022-08-09T05:56:54.907Z,15.27
2022-08-09T05:57:57.052Z,15.34
2022-08-09T05:58:44.394Z,15.47
2022-08-09T05:59:43.377Z,15.49
2022-08-09T06:00:43.381Z,15.44
2022-08-09T06:01:43.354Z,15.64
2022-08-09T06:02:46.493Z,15.62
2022-08-09T06:03:54.551Z,15.68
2022-08-09T06:04:44.535Z,15.87
2022-08-09T06:05:57.713Z,15.96
2022-08-09T06:06:50.008Z,16.02
2022-08-09T06:07:44.307Z,16.12
2022-08-09T06:08:44.264Z,16.27
2022-08-09T06:10:02.364Z,16.31
2022-08-09T06:10:44.273Z,16.34
2022-08-09T06:11:57.407Z,16.48
2022-08-09T06:12:44.226Z,16.71
2022-08-09T06:13:44.257Z,16.79
2022-08-09T06:14:43.220Z,16.93
2022-08-09T06:15:43.214Z,17.00
2022-08-09T06:16:43.187Z,17.11
2022-08-09T06:17:44.183Z,17.16
2022-08-09T06:18:43.208Z,17.25
2022-08-09T06:19:43.148Z,17.34
2022-08-09T06:20:43.156Z,17.37
2022-08-09T06:21:51.584Z,17.46
2022-08-09T06:22:45.679Z,17.51
2022-08-09T06:23:57.460Z,17.59
2022-08-09T06:24:44.129Z,17.74
2022-08-09T06:25:43.158Z,17.75
2022-08-09T06:26:43.617Z,17.81
2022-08-09T06:27:51.884Z,17.92
2022-08-09T06:28:44.053Z,18.00
2022-08-09T06:29:47.761Z,18.10
2022-08-09T06:30:44.044Z,18.08
2022-08-09T06:32:09.056Z,18.18
2022-08-09T06:33:00.708Z,18.15
2022-08-09T06:33:48.598Z,18.14
2022-08-09T06:34:42.990Z,18.37
2022-08-09T06:35:57.334Z,18.35
2022-08-09T06:36:44.134Z,18.41
2022-08-09T06:37:53.396Z,18.42
2022-08-09T06:38:50.179Z,18.54
2022-08-09T06:39:57.385Z,18.55
2022-08-09T06:40:43.988Z,18.62
2022-08-09T06:42:08.509Z,18.72
2022-08-09T06:42:44.560Z,18.66
2022-08-09T06:43:42.903Z,18.69
2022-08-09T06:44:42.864Z,18.84
2022-08-09T06:46:07.038Z,18.85
2022-08-09T06:46:43.866Z,18.85
2022-08-09T06:47:42.852Z,18.91
2022-08-09T06:48:43.213Z,18.91
2022-08-09T06:50:12.122Z,18.98
2022-08-09T06:50:43.833Z,19.04
2022-08-09T06:51:42.806Z,19.10
2022-08-09T06:52:42.795Z,19.06
2022-08-09T06:53:42.817Z,19.11
2022-08-09T06:54:42.771Z,19.21
2022-08-09T06:55:42.740Z,19.22
2022-08-09T06:56:45.534Z,19.18
2022-08-09T06:58:02.232Z,19.31
2022-08-09T07:00:49.455Z,19.33
2022-08-09T07:00:51.715Z,19.40
2022-08-09T07:00:52.110Z,19.25
2022-08-09T07:01:54.133Z,19.47
2022-08-09T07:02:43.770Z,19.48
2022-08-09T07:03:52.197Z,19.56
2022-08-09T07:04:43.656Z,19.62
2022-08-09T07:06:02.780Z,19.74
2022-08-09T07:06:43.613Z,19.76
2022-08-09T07:07:59.949Z,19.77
2022-08-09T07:08:43.601Z,19.81
2022-08-09T07:09:55.041Z,19.80
2022-08-09T07:10:43.568Z,19.87
2022-08-09T07:11:45.520Z,19.92
2022-08-09T07:12:43.902Z,19.98
2022-08-09T07:13:45.179Z,20.01
2022-08-09T07:14:43.532Z,19.99
2022-08-09T07:16:40.720Z,20.03
2022-08-09T07:16:48.145Z,20.03
2022-08-09T07:17:52.579Z,20.10
2022-08-09T07:18:43.524Z,20.06
2022-08-09T07:19:42.475Z,20.08
2022-08-09T07:20:43.715Z,20.10
2022-08-09T07:21:55.947Z,20.08
2022-08-09T07:22:48.477Z,20.08
2022-08-09T07:23:56.634Z,20.17
2022-08-09T07:24:44.488Z,20.11
2022-08-09T07:25:43.607Z,20.14
2022-08-09T07:26:42.408Z,20.29
2022-08-09T07:27:53.115Z,20.26
2022-08-09T07:29:09.412Z,20.28
2022-08-09T07:29:43.391Z,20.28
2022-08-09T07:30:42.349Z,20.26
2022-08-09T07:31:45.508Z,20.28
2022-08-09T07:32:42.336Z,20.24
2022-08-09T07:33:52.638Z,20.17
2022-08-09T07:34:43.302Z,20.18
2022-08-09T07:35:54.189Z,20.23
2022-08-09T07:36:43.319Z,20.20
2022-08-09T07:37:44.433Z,20.24
2022-08-09T07:38:42.278Z,20.20
2022-08-09T07:39:42.655Z,20.17
2022-08-09T07:41:00.654Z,20.17
2022-08-09T07:41:43.237Z,20.28
2022-08-09T07:42:42.300Z,20.23
2022-08-09T07:43:50.001Z,20.31
2022-08-09T07:44:51.120Z,20.38
2022-08-09T07:45:43.184Z,20.39
2022-08-09T07:46:42.171Z,20.47
2022-08-09T07:48:00.960Z,20.39
2022-08-09T07:48:43.188Z,20.42
2022-08-09T07:50:04.517Z,20.47
2022-08-09T07:50:43.125Z,20.52
2022-08-09T07:52:05.548Z,20.52
2022-08-09T07:52:43.209Z,20.54
2022-08-09T07:54:07.037Z,20.62
2022-08-09T07:54:43.110Z,20.58
2022-08-09T07:56:03.430Z,20.57
2022-08-09T07:56:49.230Z,20.58
2022-08-09T07:57:46.864Z,20.55
2022-08-09T07:58:42.039Z,20.64
2022-08-09T07:59:52.091Z,20.72
2022-08-09T08:00:58.983Z,20.77
2022-08-09T08:01:43.126Z,20.77
2022-08-09T08:02:43.097Z,20.80
2022-08-09T08:03:43.001Z,20.77
2022-08-09T08:04:42.024Z,20.88
2022-08-09T08:05:57.605Z,20.77
2022-08-09T08:06:45.525Z,20.76
2022-08-09T08:08:44.450Z,20.82
2022-08-09T08:09:03.129Z,20.91
2022-08-09T08:09:51.590Z,20.84
2022-08-09T08:11:03.189Z,20.97
2022-08-09T08:12:09.741Z,20.94
2022-08-09T08:12:45.540Z,20.88
2022-08-09T08:13:56.133Z,20.85
2022-08-09T08:14:42.887Z,21.01
2022-08-09T08:15:41.906Z,21.10
2022-08-09T08:16:51.127Z,21.14
2022-08-09T08:17:53.175Z,21.25
2022-08-09T08:18:43.242Z,21.35
2022-08-09T08:19:41.838Z,21.46
2022-08-09T08:20:42.707Z,21.43
2022-08-09T08:21:41.781Z,21.49
2022-08-09T08:22:42.810Z,21.54
2022-08-09T08:23:41.768Z,21.62
2022-08-09T08:24:47.186Z,21.67
2022-08-09T08:25:44.320Z,21.75
2022-08-09T08:26:54.681Z,21.82
2022-08-09T08:27:42.921Z,21.82
2022-08-09T08:28:41.717Z,21.88
2022-08-09T08:29:48.683Z,21.84
2022-08-09T08:30:42.775Z,21.77
2022-08-09T08:32:03.453Z,21.75
2022-08-09T08:32:52.539Z,21.82
2022-08-09T08:33:53.731Z,21.79
2022-08-09T08:34:42.668Z,21.75
2022-08-09T08:35:58.957Z,21.77
2022-08-09T08:36:42.668Z,21.77
2022-08-09T08:37:59.980Z,21.75
2022-08-09T08:38:42.602Z,21.72
2022-08-09T08:39:44.409Z,21.71
2022-08-09T08:40:41.575Z,21.79
2022-08-09T08:41:50.944Z,21.82
2022-08-09T08:42:43.637Z,21.82
2022-08-09T08:43:41.540Z,21.88
2022-08-09T08:44:41.555Z,21.98
2022-08-09T08:45:51.517Z,21.80
2022-08-09T08:46:59.489Z,21.92
2022-08-09T08:47:42.746Z,21.94
2022-08-09T08:48:51.230Z,22.05
2022-08-09T08:49:48.404Z,22.14
2022-08-09T08:50:42.511Z,22.15
2022-08-09T08:52:01.675Z,22.25
2022-08-09T08:52:58.165Z,22.27
2022-08-09T08:54:04.096Z,22.24
2022-08-09T08:54:42.423Z,22.37
2022-08-09T08:55:41.744Z,22.25
2022-08-09T08:56:41.440Z,22.20
2022-08-09T08:57:41.394Z,22.31
2022-08-09T08:58:44.460Z,22.35
2022-08-09T08:59:46.888Z,22.36
2022-08-09T09:00:42.352Z,22.28
2022-08-09T09:01:51.970Z,22.31
2022-08-09T09:02:42.462Z,22.31
2022-08-09T09:03:41.476Z,22.30
2022-08-09T09:04:50.919Z,22.27
2022-08-09T09:06:00.909Z,22.18
2022-08-09T09:06:42.289Z,22.22
2022-08-09T09:07:42.653Z,22.18
2022-08-09T09:08:42.653Z,22.27
2022-08-09T09:10:02.484Z,22.25
2022-08-09T09:10:42.242Z,22.27
2022-08-09T09:11:41.237Z,22.35
2022-08-09T09:12:41.222Z,22.31
2022-08-09T09:13:50.297Z,22.45
2022-08-09T09:14:42.222Z,22.55
2022-08-09T09:15:41.248Z,22.45
2022-08-09T09:16:41.225Z,22.57
2022-08-09T09:17:49.562Z,22.62
2022-08-09T09:18:48.125Z,22.57
2022-08-09T09:19:42.197Z,22.57
2022-08-09T09:20:41.171Z,22.64
2022-08-09T09:21:41.635Z,22.60
2022-08-09T09:22:41.109Z,22.67
2022-08-09T09:23:41.095Z,22.60
2022-08-09T09:24:43.475Z,22.67
2022-08-09T09:26:02.346Z,22.61
2022-08-09T09:26:43.732Z,22.54
2022-08-09T09:28:05.872Z,22.55
2022-08-09T09:29:04.568Z,22.68
2022-08-09T09:30:10.552Z,22.65
2022-08-09T09:30:42.069Z,22.65
2022-08-09T09:32:01.828Z,22.65
2022-08-09T09:32:42.056Z,22.70
2022-08-09T09:33:44.491Z,22.79
2022-08-09T09:34:41.029Z,22.79
2022-08-09T09:35:44.986Z,22.80
2022-08-09T09:36:51.137Z,22.76
2022-08-09T09:37:41.975Z,22.80
2022-08-09T09:38:40.963Z,22.79
2022-08-09T09:39:50.428Z,22.86
2022-08-09T09:40:41.989Z,22.94
2022-08-09T09:41:49.190Z,22.91
2022-08-09T09:42:46.348Z,22.92
2022-08-09T09:43:41.269Z,23.01
2022-08-09T09:44:40.897Z,23.07
2022-08-09T09:45:56.840Z,23.09
2022-08-09T09:46:45.580Z,23.12
2022-08-09T09:47:56.695Z,23.13
2022-08-09T09:48:41.841Z,23.17
2022-08-09T09:50:07.383Z,23.17
2022-08-09T09:50:49.692Z,23.32
2022-08-09T09:51:41.785Z,23.32
2022-08-09T09:52:40.779Z,23.33
2022-08-09T09:53:57.509Z,23.40
2022-08-09T09:54:41.785Z,23.22
2022-08-09T09:55:41.741Z,23.20
2022-08-09T09:58:00.346Z,23.25
2022-08-09T09:58:01.161Z,23.31
2022-08-09T09:58:41.745Z,23.33
2022-08-09T09:59:40.725Z,23.43
2022-08-09T10:00:40.733Z,23.32
2022-08-09T10:01:41.675Z,23.40
2022-08-09T10:02:40.668Z,23.42
2022-08-09T10:03:42.581Z,23.50
2022-08-09T10:04:40.698Z,23.58
2022-08-09T10:06:04.074Z,23.61
2022-08-09T10:06:42.975Z,23.63
2022-08-09T10:08:10.967Z,23.58
2022-08-09T10:08:54.280Z,23.70
2022-08-09T10:09:45.845Z,23.73
2022-08-09T10:10:41.641Z,23.70
2022-08-09T10:12:00.779Z,23.75
2022-08-09T10:12:43.531Z,23.76
2022-08-09T10:13:43.050Z,23.73
2022-08-09T10:14:48.079Z,23.78
2022-08-09T10:16:09.702Z,23.85
2022-08-09T10:16:57.264Z,23.73
2022-08-09T10:17:55.722Z,23.73
2022-08-09T10:18:41.501Z,23.76
2022-08-09T10:19:41.502Z,23.73
2022-08-09T10:20:45.208Z,23.73
2022-08-09T10:21:41.459Z,23.80
2022-08-09T10:22:41.842Z,23.80
2022-08-09T10:23:40.513Z,23.90
2022-08-09T10:24:40.456Z,23.88
2022-08-09T10:26:06.921Z,23.91
2022-08-09T10:26:41.415Z,23.91
2022-08-09T10:27:45.037Z,24.05
2022-08-09T10:28:41.444Z,23.93
2022-08-09T10:30:43.562Z,23.95
2022-08-09T10:32:13.618Z,23.94
2022-08-09T10:32:35.772Z,24.00
2022-08-09T10:32:42.701Z,23.95
2022-08-09T10:34:08.704Z,23.95
2022-08-09T10:34:41.358Z,24.05
2022-08-09T10:35:40.331Z,24.12
2022-08-09T10:36:40.299Z,24.24
2022-08-09T10:37:40.291Z,24.27
2022-08-09T10:38:56.173Z,24.30
2022-08-09T10:39:49.513Z,24.27
2022-08-09T10:40:41.372Z,24.28
2022-08-09T10:41:40.275Z,24.28
2022-08-09T10:42:40.228Z,24.32
2022-08-09T10:43:50.782Z,24.25
2022-08-09T10:44:41.253Z,24.35
2022-08-09T10:45:49.312Z,24.37
2022-08-09T10:46:54.546Z,24.24
2022-08-09T10:48:12.739Z,24.20
2022-08-09T10:48:41.160Z,24.20
2022-08-09T10:49:50.170Z,24.24
2022-08-09T10:50:41.190Z,24.25
2022-08-09T10:51:41.366Z,24.15
2022-08-09T10:52:42.806Z,24.12
2022-08-09T10:53:46.917Z,24.22
2022-08-09T10:54:41.100Z,24.24
2022-08-09T10:55:55.082Z,24.28
2022-08-09T10:56:41.101Z,24.30
2022-08-09T10:57:41.810Z,24.37
2022-08-09T10:58:40.103Z,24.32
2022-08-09T10:59:55.488Z,24.46
2022-08-09T11:00:41.789Z,24.43
2022-08-09T11:03:11.445Z,24.49
2022-08-09T11:03:13.977Z,24.50
2022-08-09T11:03:51.331Z,24.50
2022-08-09T11:04:56.340Z,24.60
2022-08-09T11:05:41.004Z,24.67
2022-08-09T11:06:40.958Z,24.67
2022-08-09T11:07:56.611Z,24.64
2022-08-09T11:08:47.120Z,24.64
2022-08-09T11:09:41.297Z,24.61
2022-08-09T11:10:40.935Z,24.67
2022-08-09T11:11:43.670Z,24.57
2022-08-09T11:12:40.903Z,24.64
2022-08-09T11:13:50.085Z,24.69
2022-08-09T11:14:40.913Z,24.71
2022-08-09T11:15:50.798Z,24.73
2022-08-09T11:16:41.458Z,24.69
2022-08-09T11:17:41.812Z,24.64
2022-08-09T11:18:39.922Z,24.55
2022-08-09T11:20:11.136Z,24.60
2022-08-09T11:20:40.848Z,24.64
2022-08-09T11:21:41.397Z,24.58
2022-08-09T11:22:39.797Z,24.49
2022-08-09T11:23:39.795Z,24.47
2022-08-09T11:24:39.787Z,24.52
2022-08-09T11:25:47.744Z,24.43
2022-08-09T11:26:40.844Z,24.45
2022-08-09T11:28:02.580Z,24.43
2022-08-09T11:28:56.053Z,24.49
2022-08-09T11:30:06.171Z,24.49
2022-08-09T11:30:48.119Z,24.52
2022-08-09T11:31:43.603Z,24.58
2022-08-09T11:32:40.669Z,24.58
2022-08-09T11:33:39.657Z,24.58
2022-08-09T11:34:39.724Z,24.60
2022-08-09T11:35:49.136Z,24.64
2022-08-09T11:36:40.662Z,24.67
2022-08-09T11:37:41.581Z,24.73
2022-08-09T11:38:41.479Z,24.77
2022-08-09T11:39:39.614Z,24.76
2022-08-09T11:40:39.614Z,24.83
2022-08-09T11:41:40.467Z,24.85
2022-08-09T11:42:39.573Z,24.84
2022-08-09T11:43:39.578Z,24.81
2022-08-09T11:44:39.539Z,24.84
2022-08-09T11:45:42.803Z,24.90
2022-08-09T11:46:39.516Z,24.84
2022-08-09T11:47:39.540Z,24.85
2022-08-09T11:48:39.510Z,24.93
2022-08-09T11:49:42.832Z,24.88
2022-08-09T11:50:53.293Z,24.96
2022-08-09T11:53:02.394Z,25.06
2022-08-09T11:53:59.154Z,25.17
2022-08-09T11:53:59.524Z,25.05
2022-08-09T11:54:40.433Z,24.98
2022-08-09T11:55:52.298Z,24.99
2022-08-09T11:56:47.835Z,24.93
2022-08-09T11:57:47.473Z,24.91
2022-08-09T11:58:40.416Z,24.90
2022-08-09T11:59:40.405Z,24.95
2022-08-09T12:00:39.387Z,24.99
2022-08-09T12:02:34.389Z,24.98
2022-08-09T12:02:40.717Z,25.18
2022-08-09T12:03:56.725Z,25.24
2022-08-09T12:04:40.399Z,25.23
2022-08-09T12:05:39.714Z,25.39
2022-08-09T12:06:39.314Z,25.45
2022-08-09T12:07:41.800Z,25.54
2022-08-09T12:08:39.271Z,25.55
2022-08-09T12:09:40.271Z,25.47
2022-08-09T12:10:40.333Z,25.52
2022-08-09T12:12:02.415Z,25.40
2022-08-09T12:12:40.369Z,25.40
2022-08-09T12:14:07.779Z,25.43
2022-08-09T12:15:03.665Z,25.46
2022-08-09T12:15:48.783Z,25.40
2022-08-09T12:16:40.306Z,25.40
2022-08-09T12:17:43.430Z,25.36
2022-08-09T12:18:40.185Z,25.39
2022-08-09T12:19:40.133Z,25.36
2022-08-09T12:20:39.140Z,25.27
2022-08-09T12:21:48.678Z,25.25
2022-08-09T12:22:40.117Z,25.20
2022-08-09T12:23:56.201Z,25.20
2022-08-09T12:24:40.098Z,25.18
2022-08-09T12:25:39.087Z,25.23
2022-08-09T12:26:40.114Z,25.30
2022-08-09T12:29:10.808Z,25.28
2022-08-09T12:29:14.481Z,25.33
2022-08-09T12:29:52.483Z,25.39
2022-08-09T12:30:40.133Z,25.42
2022-08-09T12:32:02.584Z,25.45
2022-08-09T12:32:40.733Z,25.40
2022-08-09T12:33:59.386Z,25.51
2022-08-09T12:34:40.086Z,25.45
2022-08-09T12:35:40.056Z,25.57
2022-08-09T12:36:38.960Z,25.55
2022-08-09T12:37:49.833Z,25.51
2022-08-09T12:38:39.969Z,25.54
2022-08-09T12:39:39.039Z,25.51
2022-08-09T12:40:38.957Z,25.46
2022-08-09T12:41:40.321Z,25.45
2022-08-09T12:42:38.893Z,25.36
2022-08-09T12:44:07.067Z,25.30
2022-08-09T12:44:39.902Z,25.25
2022-08-09T12:45:39.912Z,25.24
2022-08-09T12:46:38.882Z,25.27
2022-08-09T12:47:43.583Z,25.28
2022-08-09T12:48:39.842Z,25.24
2022-08-09T12:49:38.820Z,25.28
2022-08-09T12:50:39.835Z,25.33
2022-08-09T12:52:00.082Z,25.50
2022-08-09T12:52:42.666Z,25.38